Check out our new PWSWeather beta!
PWSweather.com
Personal Weather Stations
Station Observations

ChardChardGB

Lat: 50.877408, Lon: -2.94964741

Elevation: 341

Station Type: WS3083

http://www.merriott-astro.co.uk/weather/index.htm

High Low Average
Temperature 60.4°F15.8°C 33.8°F1.0°C 45.3°F7.4°C
Dew Point 40.2°F4.6°C 26.3°F-3.2°C 32.9°F0.5°C
Winds 12.4 mph 20.0 kmh Calm Calm 5.0 mph SE8.0 kmh SE
Wind Gusts 15.9 mph25.6 kmh -- 7.0 mph11.3 kmh
Humidity 85% 31% 63%
Pressure 29.87 in1011.5 mb 29.64 in1003.7 mb -
Precipitation 0.06 in1.5 mm - -
Hour Temp Dew Point Humidity Winds Wind Gusts Pressure Precip Precip Rate Daily Precip Total
12:00 AM 40.1°F4.5°C 28.5°F-1.9°C 63% Calm Calm -- 29.79 in1008.8 mb 0.00 in0.0 mm 0.00 in0.0 mm 0.00 in0.0 mm
12:10 AM 40.5°F4.7°C 28.9°F-1.7°C 63% Calm Calm -- 29.79 in1008.8 mb 0.00 in0.0 mm 0.00 in0.0 mm 0.00 in0.0 mm
12:20 AM 40.3°F4.6°C 28.7°F-1.8°C 63% Calm Calm -- 29.79 in1008.8 mb 0.00 in0.0 mm 0.00 in0.0 mm 0.00 in0.0 mm
12:30 AM 39.2°F4.0°C 27.3°F-2.6°C 62% Calm Calm -- 29.79 in1008.8 mb 0.00 in0.0 mm 0.00 in0.0 mm 0.00 in0.0 mm
12:40 AM 38.3°F3.5°C 26.8°F-2.9°C 63% Calm Calm -- 29.79 in1008.8 mb 0.00 in0.0 mm 0.00 in0.0 mm 0.00 in0.0 mm
12:50 AM 37.8°F3.2°C 26.7°F-2.9°C 64% Calm Calm -- 29.79 in1008.8 mb 0.00 in0.0 mm 0.00 in0.0 mm 0.00 in0.0 mm
01:00 AM 37.6°F3.1°C 26.9°F-2.8°C 65% Calm Calm -- 29.79 in1008.8 mb 0.00 in0.0 mm 0.00 in0.0 mm 0.00 in0.0 mm
01:10 AM 37.6°F3.1°C 27.3°F-2.6°C 66% Calm Calm -- 29.80 in1009.1 mb 0.00 in0.0 mm 0.00 in0.0 mm 0.00 in0.0 mm
01:20 AM 37.2°F2.9°C 26.9°F-2.8°C 66% Calm Calm -- 29.80 in1009.1 mb 0.00 in0.0 mm 0.00 in0.0 mm 0.00 in0.0 mm
01:30 AM 36.9°F2.7°C 26.9°F-2.8°C 67% Calm Calm -- 29.80 in1009.1 mb 0.00 in0.0 mm 0.00 in0.0 mm 0.00 in0.0 mm
01:40 AM 36.9°F2.7°C 27.3°F-2.6°C 68% Calm Calm -- 29.80 in1009.1 mb 0.00 in0.0 mm 0.00 in0.0 mm 0.00 in0.0 mm
01:50 AM 37.2°F2.9°C 28.0°F-2.2°C 69% Calm Calm -- 29.81 in1009.5 mb 0.00 in0.0 mm 0.00 in0.0 mm 0.00 in0.0 mm
02:00 AM 36.9°F2.7°C 27.7°F-2.4°C 69% Calm Calm -- 29.80 in1009.1 mb 0.00 in0.0 mm 0.00 in0.0 mm 0.00 in0.0 mm
02:10 AM 36.9°F2.7°C 27.7°F-2.4°C 69% Calm Calm -- 29.81 in1009.5 mb 0.00 in0.0 mm 0.00 in0.0 mm 0.00 in0.0 mm
02:20 AM 37.0°F2.8°C 28.2°F-2.1°C 70% Calm Calm -- 29.81 in1009.5 mb 0.00 in0.0 mm 0.00 in0.0 mm 0.00 in0.0 mm
02:30 AM 37.4°F3.0°C 28.5°F-1.9°C 70% Calm Calm -- 29.81 in1009.5 mb 0.00 in0.0 mm 0.00 in0.0 mm 0.00 in0.0 mm
02:40 AM 37.6°F3.1°C 28.7°F-1.8°C 70% Calm Calm -- 29.80 in1009.1 mb 0.00 in0.0 mm 0.00 in0.0 mm 0.00 in0.0 mm
02:50 AM 37.9°F3.3°C 29.0°F-1.7°C 70% Calm Calm -- 29.81 in1009.5 mb 0.00 in0.0 mm 0.00 in0.0 mm 0.00 in0.0 mm
03:00 AM 37.9°F3.3°C 29.0°F-1.7°C 70% Calm Calm -- 29.80 in1009.1 mb 0.00 in0.0 mm 0.00 in0.0 mm 0.00 in0.0 mm
03:10 AM 38.1°F3.4°C 29.2°F-1.6°C 70% Calm Calm -- 29.80 in1009.1 mb 0.00 in0.0 mm 0.00 in0.0 mm 0.00 in0.0 mm
03:20 AM 37.8°F3.2°C 28.9°F-1.7°C 70% Calm Calm -- 29.80 in1009.1 mb 0.00 in0.0 mm 0.00 in0.0 mm 0.00 in0.0 mm
03:30 AM 36.9°F2.7°C 27.7°F-2.4°C 69% Calm Calm -- 29.80 in1009.1 mb 0.00 in0.0 mm 0.00 in0.0 mm 0.00 in0.0 mm
03:40 AM 36.3°F2.4°C 27.1°F-2.7°C 69% Calm Calm -- 29.80 in1009.1 mb 0.00 in0.0 mm 0.00 in0.0 mm 0.00 in0.0 mm
03:50 AM 35.8°F2.1°C 27.0°F-2.8°C 70% Calm Calm -- 29.80 in1009.1 mb 0.00 in0.0 mm 0.00 in0.0 mm 0.00 in0.0 mm
04:00 AM 35.4°F1.9°C 26.6°F-3.0°C 70% Calm Calm -- 29.81 in1009.5 mb 0.00 in0.0 mm 0.00 in0.0 mm 0.00 in0.0 mm
04:10 AM 35.8°F2.1°C 27.3°F-2.6°C 71% Calm Calm -- 29.81 in1009.5 mb 0.00 in0.0 mm 0.00 in0.0 mm 0.00 in0.0 mm
04:20 AM 35.6°F2.0°C 27.5°F-2.5°C 72% Calm Calm -- 29.81 in1009.5 mb 0.00 in0.0 mm 0.00 in0.0 mm 0.00 in0.0 mm
04:30 AM 34.9°F1.6°C 26.5°F-3.1°C 71% Calm Calm -- 29.82 in1009.8 mb 0.00 in0.0 mm 0.00 in0.0 mm 0.00 in0.0 mm
04:40 AM 34.9°F1.6°C 26.8°F-2.9°C 72% Calm Calm -- 29.82 in1009.8 mb 0.00 in0.0 mm 0.00 in0.0 mm 0.00 in0.0 mm
04:50 AM 34.7°F1.5°C 26.6°F-3.0°C 72% Calm Calm -- 29.81 in1009.5 mb 0.00 in0.0 mm 0.00 in0.0 mm 0.00 in0.0 mm
05:00 AM 34.3°F1.3°C 26.3°F-3.2°C 72% Calm Calm -- 29.82 in1009.8 mb 0.00 in0.0 mm 0.00 in0.0 mm 0.00 in0.0 mm
05:10 AM 34.5°F1.4°C 26.8°F-2.9°C 73% Calm Calm -- 29.81 in1009.5 mb 0.00 in0.0 mm 0.00 in0.0 mm 0.00 in0.0 mm
05:20 AM 34.7°F1.5°C 27.3°F-2.6°C 74% Calm Calm -- 29.82 in1009.8 mb 0.00 in0.0 mm 0.00 in0.0 mm 0.00 in0.0 mm
05:30 AM 34.7°F1.5°C 27.3°F-2.6°C 74% Calm Calm -- 29.82 in1009.8 mb 0.00 in0.0 mm 0.00 in0.0 mm 0.00 in0.0 mm
05:40 AM 34.2°F1.2°C 26.8°F-2.9°C 74% Calm Calm -- 29.82 in1009.8 mb 0.00 in0.0 mm 0.00 in0.0 mm 0.00 in0.0 mm
05:50 AM 33.8°F1.0°C 26.4°F-3.1°C 74% Calm Calm -- 29.83 in1010.2 mb 0.00 in0.0 mm 0.00 in0.0 mm 0.00 in0.0 mm
06:00 AM 34.0°F1.1°C 26.6°F-3.0°C 74% Calm Calm -- 29.83 in1010.2 mb 0.00 in0.0 mm 0.00 in0.0 mm 0.00 in0.0 mm
06:10 AM 34.0°F1.1°C 26.6°F-3.0°C 74% Calm Calm -- 29.84 in1010.5 mb 0.00 in0.0 mm 0.00 in0.0 mm 0.00 in0.0 mm
06:20 AM 34.3°F1.3°C 27.3°F-2.6°C 75% Calm Calm -- 29.84 in1010.5 mb 0.00 in0.0 mm 0.00 in0.0 mm 0.00 in0.0 mm
06:30 AM 34.9°F1.6°C 27.8°F-2.3°C 75% Calm Calm -- 29.84 in1010.5 mb 0.00 in0.0 mm 0.00 in0.0 mm 0.00 in0.0 mm
06:40 AM 36.0°F2.2°C 29.1°F-1.6°C 76% 1.6 mph SSE2.6 kmh SSE 3.8 mph6.1 kmh 29.85 in1010.8 mb 0.00 in0.0 mm 0.00 in0.0 mm 0.00 in0.0 mm
06:50 AM 38.5°F3.6°C 31.6°F-0.2°C 76% 2.1 mph S3.4 kmh S 4.5 mph7.2 kmh 29.85 in1010.8 mb 0.00 in0.0 mm 0.00 in0.0 mm 0.00 in0.0 mm
07:00 AM 38.8°F3.8°C 30.3°F-0.9°C 71% 2.0 mph SSE3.2 kmh SSE 4.5 mph7.2 kmh 29.86 in1011.2 mb 0.00 in0.0 mm 0.00 in0.0 mm 0.00 in0.0 mm
07:10 AM 39.6°F4.2°C 30.6°F-0.8°C 70% 2.1 mph S3.4 kmh S 3.8 mph6.1 kmh 29.85 in1010.8 mb 0.00 in0.0 mm 0.00 in0.0 mm 0.00 in0.0 mm
07:20 AM 40.1°F4.5°C 31.1°F-0.5°C 70% 0.5 mph E0.8 kmh E 2.2 mph3.5 kmh 29.85 in1010.8 mb 0.00 in0.0 mm 0.00 in0.0 mm 0.00 in0.0 mm
07:30 AM 40.1°F4.5°C 30.4°F-0.9°C 68% 1.0 mph S1.6 kmh S 3.1 mph5.0 kmh 29.85 in1010.8 mb 0.00 in0.0 mm 0.00 in0.0 mm 0.00 in0.0 mm
07:40 AM 39.6°F4.2°C 29.5°F-1.4°C 67% 2.7 mph S4.3 kmh S 3.8 mph6.1 kmh 29.85 in1010.8 mb 0.00 in0.0 mm 0.00 in0.0 mm 0.00 in0.0 mm
07:50 AM 39.7°F4.3°C 30.1°F-1.1°C 68% 2.3 mph SSW3.7 kmh SSW 3.8 mph6.1 kmh 29.86 in1011.2 mb 0.00 in0.0 mm 0.00 in0.0 mm 0.00 in0.0 mm
08:00 AM 40.1°F4.5°C 30.4°F-0.9°C 68% 1.9 mph S3.1 kmh S 4.5 mph7.2 kmh 29.85 in1010.8 mb 0.00 in0.0 mm 0.00 in0.0 mm 0.00 in0.0 mm
08:10 AM 40.6°F4.8°C 30.9°F-0.6°C 68% 2.3 mph S3.7 kmh S 3.8 mph6.1 kmh 29.86 in1011.2 mb 0.00 in0.0 mm 0.00 in0.0 mm 0.00 in0.0 mm
08:20 AM 44.1°F6.7°C 34.9°F1.6°C 70% 0.8 mph S1.3 kmh S 3.1 mph5.0 kmh 29.85 in1010.8 mb 0.00 in0.0 mm 0.00 in0.0 mm 0.00 in0.0 mm
08:30 AM 46.8°F8.2°C 33.2°F0.7°C 59% 3.1 mph SSE5.0 kmh SSE 4.5 mph7.2 kmh 29.86 in1011.2 mb 0.00 in0.0 mm 0.00 in0.0 mm 0.00 in0.0 mm
08:40 AM 48.9°F9.4°C 33.0°F0.6°C 54% 2.5 mph S4.0 kmh S 3.1 mph5.0 kmh 29.86 in1011.2 mb 0.00 in0.0 mm 0.00 in0.0 mm 0.00 in0.0 mm
08:50 AM 49.5°F9.7°C 33.1°F0.6°C 53% 3.5 mph S5.6 kmh S 3.8 mph6.1 kmh 29.87 in1011.5 mb 0.00 in0.0 mm 0.00 in0.0 mm 0.00 in0.0 mm
09:00 AM 52.2°F11.2°C 36.9°F2.7°C 56% 2.9 mph S4.7 kmh S 3.8 mph6.1 kmh 29.86 in1011.2 mb 0.00 in0.0 mm 0.00 in0.0 mm 0.00 in0.0 mm
09:10 AM 52.0°F11.1°C 35.9°F2.2°C 54% 5.0 mph NW8.0 kmh NW 7.6 mph12.2 kmh 29.86 in1011.2 mb 0.00 in0.0 mm 0.00 in0.0 mm 0.00 in0.0 mm
09:20 AM 53.2°F11.8°C 38.0°F3.3°C 56% 3.7 mph WNW6.0 kmh WNW 5.4 mph8.7 kmh 29.86 in1011.2 mb 0.00 in0.0 mm 0.00 in0.0 mm 0.00 in0.0 mm
09:30 AM 56.1°F13.4°C 37.7°F3.2°C 50% 2.3 mph SW3.7 kmh SW 3.1 mph5.0 kmh 29.86 in1011.2 mb 0.00 in0.0 mm 0.00 in0.0 mm 0.00 in0.0 mm
09:40 AM 56.8°F13.8°C 37.9°F3.3°C 49% 2.8 mph NW4.5 kmh NW 3.8 mph6.1 kmh 29.85 in1010.8 mb 0.00 in0.0 mm 0.00 in0.0 mm 0.00 in0.0 mm
09:50 AM 56.8°F13.8°C 34.6°F1.4°C 43% 3.0 mph NW4.8 kmh NW 5.4 mph8.7 kmh 29.85 in1010.8 mb 0.00 in0.0 mm 0.00 in0.0 mm 0.00 in0.0 mm
10:00 AM 55.9°F13.3°C 33.8°F1.0°C 43% 3.2 mph WNW5.1 kmh WNW 5.4 mph8.7 kmh 29.86 in1011.2 mb 0.00 in0.0 mm 0.00 in0.0 mm 0.00 in0.0 mm
10:10 AM 56.7°F13.7°C 34.4°F1.3°C 43% 2.8 mph WSW4.5 kmh WSW 3.8 mph6.1 kmh 29.85 in1010.8 mb 0.00 in0.0 mm 0.00 in0.0 mm 0.00 in0.0 mm
10:20 AM 56.8°F13.8°C 35.2°F1.8°C 44% 3.1 mph NW5.0 kmh NW 3.8 mph6.1 kmh 29.86 in1011.2 mb 0.00 in0.0 mm 0.00 in0.0 mm 0.00 in0.0 mm
10:30 AM 56.3°F13.5°C 32.9°F0.5°C 41% 4.2 mph W6.8 kmh W 6.0 mph9.7 kmh 29.86 in1011.2 mb 0.00 in0.0 mm 0.00 in0.0 mm 0.00 in0.0 mm
10:40 AM 56.7°F13.7°C 32.6°F0.3°C 40% 3.3 mph WNW5.3 kmh WNW 6.0 mph9.7 kmh 29.85 in1010.8 mb 0.00 in0.0 mm 0.00 in0.0 mm 0.00 in0.0 mm
10:50 AM 57.9°F14.4°C 33.8°F1.0°C 40% 3.6 mph N5.8 kmh N 4.5 mph7.2 kmh 29.85 in1010.8 mb 0.00 in0.0 mm 0.00 in0.0 mm 0.00 in0.0 mm
11:00 AM 57.2°F14.0°C 33.1°F0.6°C 40% 4.3 mph NW6.9 kmh NW 8.3 mph13.4 kmh 29.85 in1010.8 mb 0.00 in0.0 mm 0.00 in0.0 mm 0.00 in0.0 mm
11:10 AM 58.3°F14.6°C 30.8°F-0.7°C 35% 3.1 mph SSW5.0 kmh SSW 6.0 mph9.7 kmh 29.86 in1011.2 mb 0.00 in0.0 mm 0.00 in0.0 mm 0.00 in0.0 mm
11:20 AM 58.8°F14.9°C 31.2°F-0.4°C 35% 3.8 mph SW6.1 kmh SW 6.0 mph9.7 kmh 29.85 in1010.8 mb 0.00 in0.0 mm 0.00 in0.0 mm 0.00 in0.0 mm
11:30 AM 60.1°F15.6°C 30.9°F-0.6°C 33% 3.9 mph WSW6.3 kmh WSW 9.2 mph14.8 kmh 29.85 in1010.8 mb 0.00 in0.0 mm 0.00 in0.0 mm 0.00 in0.0 mm
11:40 AM 60.4°F15.8°C 29.7°F-1.3°C 31% 5.1 mph S8.2 kmh S 7.6 mph12.2 kmh 29.84 in1010.5 mb 0.00 in0.0 mm 0.00 in0.0 mm 0.00 in0.0 mm
11:50 AM 59.4°F15.2°C 29.5°F-1.4°C 32% 6.8 mph S10.9 kmh S 8.3 mph13.4 kmh 29.85 in1010.8 mb 0.00 in0.0 mm 0.00 in0.0 mm 0.00 in0.0 mm
12:00 PM 57.2°F14.0°C 26.9°F-2.8°C 31% 8.0 mph SW12.9 kmh SW 13.0 mph20.9 kmh 29.85 in1010.8 mb 0.00 in0.0 mm 0.00 in0.0 mm 0.00 in0.0 mm
12:10 PM 55.6°F13.1°C 29.1°F-1.6°C 36% 6.1 mph WSW9.8 kmh WSW 7.6 mph12.2 kmh 29.84 in1010.5 mb 0.00 in0.0 mm 0.00 in0.0 mm 0.00 in0.0 mm
12:20 PM 56.1°F13.4°C 32.8°F0.4°C 41% 6.0 mph SW9.7 kmh SW 9.2 mph14.8 kmh 29.84 in1010.5 mb 0.00 in0.0 mm 0.00 in0.0 mm 0.00 in0.0 mm
12:30 PM 55.9°F13.3°C 32.0°F0.0°C 40% 8.4 mph S13.5 kmh S 11.4 mph18.3 kmh 29.84 in1010.5 mb 0.00 in0.0 mm 0.00 in0.0 mm 0.00 in0.0 mm
12:40 PM 54.5°F12.5°C 31.3°F-0.4°C 41% 10.8 mph SSW17.4 kmh SSW 15.2 mph24.5 kmh 29.84 in1010.5 mb 0.00 in0.0 mm 0.00 in0.0 mm 0.00 in0.0 mm
12:50 PM 53.8°F12.1°C 32.4°F0.2°C 44% 10.8 mph SSW17.4 kmh SSW 15.9 mph25.6 kmh 29.85 in1010.8 mb 0.00 in0.0 mm 0.00 in0.0 mm 0.00 in0.0 mm
01:00 PM 53.4°F11.9°C 29.7°F-1.3°C 40% 10.6 mph SW17.1 kmh SW 13.6 mph21.9 kmh 29.84 in1010.5 mb 0.00 in0.0 mm 0.00 in0.0 mm 0.00 in0.0 mm
01:10 PM 52.2°F11.2°C 29.2°F-1.6°C 41% 12.4 mph S20.0 kmh S 15.2 mph24.5 kmh 29.84 in1010.5 mb 0.00 in0.0 mm 0.00 in0.0 mm 0.00 in0.0 mm
01:20 PM 52.5°F11.4°C 29.5°F-1.4°C 41% 10.8 mph S17.4 kmh S 15.2 mph24.5 kmh 29.84 in1010.5 mb 0.00 in0.0 mm 0.00 in0.0 mm 0.00 in0.0 mm
01:30 PM 54.5°F12.5°C 29.4°F-1.4°C 38% 6.4 mph SW10.3 kmh SW 13.6 mph21.9 kmh 29.84 in1010.5 mb 0.00 in0.0 mm 0.00 in0.0 mm 0.00 in0.0 mm
01:40 PM 52.7°F11.5°C 29.1°F-1.6°C 40% 11.0 mph S17.7 kmh S 13.6 mph21.9 kmh 29.84 in1010.5 mb 0.00 in0.0 mm 0.00 in0.0 mm 0.00 in0.0 mm
01:50 PM 52.2°F11.2°C 29.2°F-1.6°C 41% 10.5 mph S16.9 kmh S 14.5 mph23.3 kmh 29.83 in1010.2 mb 0.00 in0.0 mm 0.00 in0.0 mm 0.00 in0.0 mm
02:00 PM 52.0°F11.1°C 32.4°F0.2°C 47% 10.5 mph SSW16.9 kmh SSW 14.5 mph23.3 kmh 29.83 in1010.2 mb 0.00 in0.0 mm 0.00 in0.0 mm 0.00 in0.0 mm
02:10 PM 51.8°F11.0°C 34.3°F1.3°C 51% 10.4 mph S16.7 kmh S 15.2 mph24.5 kmh 29.83 in1010.2 mb 0.00 in0.0 mm 0.00 in0.0 mm 0.00 in0.0 mm
02:20 PM 52.2°F11.2°C 35.6°F2.0°C 53% 8.9 mph SSW14.3 kmh SSW 13.0 mph20.9 kmh 29.83 in1010.2 mb 0.00 in0.0 mm 0.00 in0.0 mm 0.00 in0.0 mm
02:30 PM 52.2°F11.2°C 34.6°F1.4°C 51% 7.8 mph S12.6 kmh S 9.8 mph15.8 kmh 29.83 in1010.2 mb 0.00 in0.0 mm 0.00 in0.0 mm 0.00 in0.0 mm
02:40 PM 51.8°F11.0°C 34.3°F1.3°C 51% 10.4 mph SSW16.7 kmh SSW 14.5 mph23.3 kmh 29.83 in1010.2 mb 0.00 in0.0 mm 0.00 in0.0 mm 0.00 in0.0 mm
02:50 PM 51.8°F11.0°C 35.2°F1.8°C 53% 9.7 mph SSW15.6 kmh SSW 15.2 mph24.5 kmh 29.82 in1009.8 mb 0.00 in0.0 mm 0.00 in0.0 mm 0.00 in0.0 mm
03:00 PM 51.1°F10.6°C 35.5°F1.9°C 55% 8.4 mph SSW13.5 kmh SSW 13.0 mph20.9 kmh 29.81 in1009.5 mb 0.00 in0.0 mm 0.00 in0.0 mm 0.00 in0.0 mm
03:10 PM 51.3°F10.7°C 36.1°F2.3°C 56% 7.9 mph SSW12.7 kmh SSW 11.4 mph18.3 kmh 29.81 in1009.5 mb 0.00 in0.0 mm 0.00 in0.0 mm 0.00 in0.0 mm
03:20 PM 50.7°F10.4°C 36.5°F2.5°C 58% 9.1 mph SSW14.6 kmh SSW 15.9 mph25.6 kmh 29.81 in1009.5 mb 0.00 in0.0 mm 0.00 in0.0 mm 0.00 in0.0 mm
03:30 PM 49.8°F9.9°C 36.5°F2.5°C 60% 11.1 mph S17.9 kmh S 13.0 mph20.9 kmh 29.81 in1009.5 mb 0.00 in0.0 mm 0.00 in0.0 mm 0.00 in0.0 mm
03:40 PM 49.6°F9.8°C 36.3°F2.4°C 60% 10.7 mph SSW17.2 kmh SSW 13.0 mph20.9 kmh 29.80 in1009.1 mb 0.00 in0.0 mm 0.00 in0.0 mm 0.00 in0.0 mm
03:50 PM 49.5°F9.7°C 36.6°F2.6°C 61% 8.3 mph SSW13.4 kmh SSW 11.4 mph18.3 kmh 29.80 in1009.1 mb 0.00 in0.0 mm 0.00 in0.0 mm 0.00 in0.0 mm
04:00 PM 49.3°F9.6°C 36.8°F2.7°C 62% 9.5 mph S15.3 kmh S 10.7 mph17.2 kmh 29.80 in1009.1 mb 0.00 in0.0 mm 0.00 in0.0 mm 0.00 in0.0 mm
04:10 PM 49.1°F9.5°C 37.1°F2.8°C 63% 8.1 mph S13.0 kmh S 12.1 mph19.5 kmh 29.80 in1009.1 mb 0.00 in0.0 mm 0.00 in0.0 mm 0.00 in0.0 mm
04:20 PM 49.1°F9.5°C 37.5°F3.1°C 64% 7.7 mph SSW12.4 kmh SSW 12.1 mph19.5 kmh 29.80 in1009.1 mb 0.00 in0.0 mm 0.00 in0.0 mm 0.00 in0.0 mm
04:30 PM 49.3°F9.6°C 37.2°F2.9°C 63% 8.2 mph SSW13.2 kmh SSW 12.1 mph19.5 kmh 29.80 in1009.1 mb 0.00 in0.0 mm 0.00 in0.0 mm 0.00 in0.0 mm
04:40 PM 49.1°F9.5°C 36.7°F2.6°C 62% 9.4 mph SSW15.1 kmh SSW 12.1 mph19.5 kmh 29.79 in1008.8 mb 0.00 in0.0 mm 0.00 in0.0 mm 0.00 in0.0 mm
04:50 PM 49.1°F9.5°C 36.2°F2.3°C 61% 8.8 mph S14.2 kmh S 12.1 mph19.5 kmh 29.79 in1008.8 mb 0.00 in0.0 mm 0.00 in0.0 mm 0.00 in0.0 mm
05:00 PM 49.1°F9.5°C 35.8°F2.1°C 60% 5.0 mph SSE8.0 kmh SSE 12.1 mph19.5 kmh 29.79 in1008.8 mb 0.00 in0.0 mm 0.00 in0.0 mm 0.00 in0.0 mm
05:10 PM 48.7°F9.3°C 35.9°F2.2°C 61% 6.5 mph SSW10.5 kmh SSW 9.8 mph15.8 kmh 29.78 in1008.5 mb 0.00 in0.0 mm 0.00 in0.0 mm 0.00 in0.0 mm
05:20 PM 48.4°F9.1°C 35.6°F2.0°C 61% 7.3 mph SSW11.7 kmh SSW 9.8 mph15.8 kmh 29.79 in1008.8 mb 0.00 in0.0 mm 0.00 in0.0 mm 0.00 in0.0 mm
05:30 PM 48.0°F8.9°C 35.6°F2.0°C 62% 5.8 mph S9.3 kmh S 9.8 mph15.8 kmh 29.79 in1008.8 mb 0.00 in0.0 mm 0.00 in0.0 mm 0.00 in0.0 mm
05:40 PM 47.7°F8.7°C 36.1°F2.3°C 64% 7.8 mph SSW12.6 kmh SSW 9.8 mph15.8 kmh 29.79 in1008.8 mb 0.00 in0.0 mm 0.00 in0.0 mm 0.00 in0.0 mm
05:50 PM 47.1°F8.4°C 36.7°F2.6°C 67% 7.6 mph SSW12.2 kmh SSW 10.7 mph17.2 kmh 29.80 in1009.1 mb 0.00 in0.0 mm 0.00 in0.0 mm 0.00 in0.0 mm
06:00 PM 46.8°F8.2°C 37.1°F2.8°C 69% 7.5 mph S12.1 kmh S 9.8 mph15.8 kmh 29.79 in1008.8 mb 0.00 in0.0 mm 0.00 in0.0 mm 0.00 in0.0 mm
06:10 PM 46.6°F8.1°C 37.3°F2.9°C 70% 10.3 mph SSW16.6 kmh SSW 11.4 mph18.3 kmh 29.79 in1008.8 mb 0.00 in0.0 mm 0.00 in0.0 mm 0.00 in0.0 mm
06:20 PM 46.4°F8.0°C 37.2°F2.9°C 70% 9.8 mph S15.8 kmh S 13.0 mph20.9 kmh 29.78 in1008.5 mb 0.00 in0.0 mm 0.00 in0.0 mm 0.00 in0.0 mm
06:30 PM 46.4°F8.0°C 37.2°F2.9°C 70% 8.4 mph S13.5 kmh S 11.4 mph18.3 kmh 29.78 in1008.5 mb 0.00 in0.0 mm 0.00 in0.0 mm 0.00 in0.0 mm
06:40 PM 46.2°F7.9°C 37.3°F2.9°C 71% 8.8 mph S14.2 kmh S 11.4 mph18.3 kmh 29.78 in1008.5 mb 0.00 in0.0 mm 0.00 in0.0 mm 0.00 in0.0 mm
06:50 PM 46.2°F7.9°C 37.3°F2.9°C 71% 7.9 mph SSW12.7 kmh SSW 12.1 mph19.5 kmh 29.78 in1008.5 mb 0.00 in0.0 mm 0.00 in0.0 mm 0.00 in0.0 mm
07:00 PM 46.2°F7.9°C 37.3°F2.9°C 71% 7.5 mph SSW12.1 kmh SSW 12.1 mph19.5 kmh 29.78 in1008.5 mb 0.00 in0.0 mm 0.00 in0.0 mm 0.00 in0.0 mm
07:10 PM 46.0°F7.8°C 37.2°F2.9°C 71% 9.2 mph SSW14.8 kmh SSW 12.1 mph19.5 kmh 29.77 in1008.1 mb 0.00 in0.0 mm 0.00 in0.0 mm 0.00 in0.0 mm
07:20 PM 46.0°F7.8°C 37.5°F3.1°C 72% 6.7 mph SSW10.8 kmh SSW 9.8 mph15.8 kmh 29.77 in1008.1 mb 0.00 in0.0 mm 0.00 in0.0 mm 0.00 in0.0 mm
07:30 PM 45.7°F7.6°C 37.2°F2.9°C 72% 11.9 mph SSW19.2 kmh SSW 15.2 mph24.5 kmh 29.77 in1008.1 mb 0.00 in0.0 mm 0.00 in0.0 mm 0.00 in0.0 mm
07:40 PM 45.1°F7.3°C 39.0°F3.9°C 79% 11.5 mph S18.5 kmh S 13.0 mph20.9 kmh 29.77 in1008.1 mb 0.00 in0.0 mm 0.00 in0.0 mm 0.00 in0.0 mm
07:50 PM 44.6°F7.0°C 36.1°F2.3°C 72% 9.3 mph SSW15.0 kmh SSW 13.6 mph21.9 kmh 29.75 in1007.5 mb 0.00 in0.0 mm 0.00 in0.0 mm 0.00 in0.0 mm
08:00 PM 44.4°F6.9°C 35.3°F1.8°C 70% 8.5 mph S13.7 kmh S 9.8 mph15.8 kmh 29.76 in1007.8 mb 0.00 in0.0 mm 0.00 in0.0 mm 0.00 in0.0 mm
08:10 PM 44.1°F6.7°C 35.3°F1.8°C 71% 7.1 mph SW11.4 kmh SW 10.7 mph17.2 kmh 29.75 in1007.5 mb 0.00 in0.0 mm 0.00 in0.0 mm 0.00 in0.0 mm
08:20 PM 44.1°F6.7°C 36.0°F2.2°C 73% 5.7 mph SSW9.2 kmh SSW 7.6 mph12.2 kmh 29.75 in1007.5 mb 0.00 in0.0 mm 0.00 in0.0 mm 0.00 in0.0 mm
08:30 PM 44.1°F6.7°C 36.7°F2.6°C 75% 6.3 mph SW10.1 kmh SW 9.2 mph14.8 kmh 29.75 in1007.5 mb 0.00 in0.0 mm 0.00 in0.0 mm 0.00 in0.0 mm
08:40 PM 44.1°F6.7°C 37.0°F2.8°C 76% 8.0 mph SSW12.9 kmh SSW 9.8 mph15.8 kmh 29.74 in1007.1 mb 0.00 in0.0 mm 0.00 in0.0 mm 0.00 in0.0 mm
08:50 PM 44.1°F6.7°C 37.3°F2.9°C 77% 6.3 mph SSW10.1 kmh SSW 10.7 mph17.2 kmh 29.73 in1006.8 mb 0.00 in0.0 mm 0.00 in0.0 mm 0.00 in0.0 mm
09:00 PM 44.1°F6.7°C 37.6°F3.1°C 78% 7.1 mph SSW11.4 kmh SSW 9.8 mph15.8 kmh 29.71 in1006.1 mb 0.00 in0.0 mm 0.00 in0.0 mm 0.00 in0.0 mm
09:10 PM 44.1°F6.7°C 38.0°F3.3°C 79% 7.2 mph SSW11.6 kmh SSW 9.2 mph14.8 kmh 29.72 in1006.4 mb 0.00 in0.0 mm 0.00 in0.0 mm 0.00 in0.0 mm
09:20 PM 44.1°F6.7°C 38.3°F3.5°C 80% 7.0 mph SSW11.3 kmh SSW 9.2 mph14.8 kmh 29.72 in1006.4 mb 0.00 in0.0 mm 0.00 in0.0 mm 0.00 in0.0 mm
09:30 PM 44.1°F6.7°C 38.3°F3.5°C 80% 4.9 mph S7.9 kmh S 8.3 mph13.4 kmh 29.73 in1006.8 mb 0.00 in0.0 mm 0.00 in0.0 mm 0.00 in0.0 mm
09:40 PM 44.2°F6.8°C 38.5°F3.6°C 80% 7.5 mph S12.1 kmh S 9.8 mph15.8 kmh 29.72 in1006.4 mb 0.00 in0.0 mm 0.00 in0.0 mm 0.00 in0.0 mm
09:50 PM 44.2°F6.8°C 38.5°F3.6°C 80% 7.2 mph SSW11.6 kmh SSW 9.8 mph15.8 kmh 29.71 in1006.1 mb 0.00 in0.0 mm 0.00 in0.0 mm 0.00 in0.0 mm
10:00 PM 44.1°F6.7°C 38.3°F3.5°C 80% 8.3 mph S13.4 kmh S 10.7 mph17.2 kmh 29.71 in1006.1 mb 0.00 in0.0 mm 0.00 in0.0 mm 0.00 in0.0 mm
10:10 PM 43.9°F6.6°C 38.4°F3.6°C 81% 6.6 mph SSW10.6 kmh SSW 9.2 mph14.8 kmh 29.70 in1005.8 mb 0.00 in0.0 mm 0.00 in0.0 mm 0.00 in0.0 mm
10:20 PM 43.9°F6.6°C 38.4°F3.6°C 81% 6.7 mph SSW10.8 kmh SSW 9.2 mph14.8 kmh 29.70 in1005.8 mb 0.01 in0.3 mm 0.06 in1.5 mm 0.01 in0.3 mm
10:30 PM 43.9°F6.6°C 38.7°F3.7°C 82% 5.4 mph S8.7 kmh S 8.3 mph13.4 kmh 29.69 in1005.4 mb 0.01 in0.3 mm 0.00 in0.0 mm 0.01 in0.3 mm
10:40 PM 43.7°F6.5°C 38.6°F3.7°C 82% 5.9 mph SSW9.5 kmh SSW 8.3 mph13.4 kmh 29.69 in1005.4 mb 0.01 in0.3 mm 0.00 in0.0 mm 0.01 in0.3 mm
10:50 PM 43.7°F6.5°C 38.9°F3.8°C 83% 6.1 mph SW9.8 kmh SW 9.8 mph15.8 kmh 29.68 in1005.1 mb 0.02 in0.5 mm 0.06 in1.5 mm 0.02 in0.5 mm
11:00 PM 43.7°F6.5°C 38.9°F3.8°C 83% 6.1 mph S9.8 kmh S 9.2 mph14.8 kmh 29.66 in1004.4 mb 0.02 in0.5 mm 0.00 in0.0 mm 0.02 in0.5 mm
11:10 PM 44.1°F6.7°C 39.2°F4.0°C 83% 9.5 mph S15.3 kmh S 13.0 mph20.9 kmh 29.65 in1004.1 mb 0.05 in1.3 mm 0.18 in4.6 mm 0.05 in1.3 mm
11:20 PM 44.2°F6.8°C 39.7°F4.3°C 84% 9.6 mph S15.4 kmh S 13.0 mph20.9 kmh 29.65 in1004.1 mb 0.04 in1.0 mm 0.00 in0.0 mm 0.05 in1.3 mm
11:30 PM 44.4°F6.9°C 39.9°F4.4°C 84% 9.8 mph SW15.8 kmh SW 15.9 mph25.6 kmh 29.65 in1004.1 mb 0.05 in1.3 mm 0.06 in1.5 mm 0.06 in1.5 mm
11:40 PM 44.4°F6.9°C 40.2°F4.6°C 85% 11.0 mph SSW17.7 kmh SSW 15.9 mph25.6 kmh 29.64 in1003.7 mb 0.05 in1.3 mm 0.00 in0.0 mm 0.06 in1.5 mm
11:50 PM 44.4°F6.9°C 40.2°F4.6°C 85% 10.7 mph SSW17.2 kmh SSW 13.6 mph21.9 kmh 29.64 in1003.7 mb 0.04 in1.0 mm 0.00 in0.0 mm 0.06 in1.5 mm